Time;durP1;ratioP1;P1;durP2;ratioP2;P2;SDS_P1;SDS_P2;PMS_P1;PMS_P2;Temp;Humidity;BMP_temperature;BMP_pressure;BME280_temperature;BME280_humidity;BME280_pressure;Samples;Min_cycle;Max_cycle;Signal;HPM_P1;HPM_P2
2023/02/15 00:01:41;;;;;;;;;;;1.10;80.40;;;;;;5003074;28;88486;-38
2023/02/15 00:04:07;;;;;;;;;;;1.10;81.00;;;;;;5005178;28;90232;-38
2023/02/15 00:06:33;;;;;;;;;;;1.20;80.50;;;;;;5002683;28;89636;-38
2023/02/15 00:08:58;;;;;;;;;;;1.10;80.50;;;;;;5002590;28;89304;-38
2023/02/15 00:11:39;;;;;;;;;;;1.10;80.40;;;;;;5003195;28;87424;-38
2023/02/15 00:14:25;;;;;;;;;;;1.20;80.50;;;;;;5002978;28;88717;-38
2023/02/15 00:16:51;;;;;;;;;;;1.20;80.40;;;;;;5002221;28;90278;-38
2023/02/15 00:19:18;;;;;;;;;;;1.10;80.40;;;;;;5002919;28;87103;-38
2023/02/15 00:21:45;;;;;;;;;;;1.20;80.40;;;;;;5003162;28;88573;-38
2023/02/15 00:24:11;;;;;;;;;;;1.10;80.30;;;;;;5002546;28;89201;-38
2023/02/15 00:26:37;;;;;;;;;;;1.10;80.50;;;;;;5005670;28;87179;-38
2023/02/15 00:29:03;;;;;;;;;;;1.10;80.30;;;;;;5002028;28;89147;-38
2023/02/15 00:31:30;;;;;;;;;;;1.10;80.40;;;;;;5002620;28;87121;-38
2023/02/15 00:34:00;;;;;;;;;;;1.20;80.40;;;;;;5002767;28;88684;-38
2023/02/15 00:36:25;;;;;;;;;;;1.10;80.30;;;;;;5002418;28;89341;-38
2023/02/15 00:38:51;;;;;;;;;;;1.20;80.50;;;;;;5002682;28;87020;-38
2023/02/15 00:41:16;;;;;;;;;;;1.10;80.30;;;;;;5002811;28;88509;-38
2023/02/15 00:43:42;;;;;;;;;;;1.10;80.30;;;;;;5002335;28;89061;-38
2023/02/15 00:46:07;;;;;;;;;;;1.10;80.30;;;;;;5002850;28;86328;-38
2023/02/15 00:48:33;;;;;;;;;;;1.10;80.30;;;;;;5005057;28;88448;-38
2023/02/15 00:50:59;;;;;;;;;;;1.20;80.40;;;;;;5001588;28;87130;-38
2023/02/15 00:53:25;;;;;;;;;;;1.10;80.30;;;;;;5001801;28;88775;-38
2023/02/15 00:55:51;;;;;;;;;;;1.10;80.30;;;;;;5002134;28;89440;-38
2023/02/15 00:58:16;;;;;;;;;;;1.10;80.30;;;;;;5002370;28;87209;-38
2023/02/15 01:00:43;;;;;;;;;;;1.20;80.50;;;;;;5002292;28;88878;-38
2023/02/15 01:03:09;;;;;;;;;;;1.20;80.40;;;;;;5001919;28;89472;-38
2023/02/15 01:05:35;;;;;;;;;;;1.20;80.50;;;;;;5001481;28;87238;-38
2023/02/15 01:08:00;;;;;;;;;;;1.20;80.40;;;;;;5002660;28;86855;-38
2023/02/15 01:10:26;;;;;;;;;;;1.10;80.40;;;;;;5005704;28;87187;-38
2023/02/15 01:12:52;;;;;;;;;;;1.10;80.40;;;;;;5002161;28;88211;-38
2023/02/15 01:15:18;;;;;;;;;;;1.10;80.40;;;;;;5001926;28;89661;-38
2023/02/15 01:17:45;;;;;;;;;;;1.10;80.40;;;;;;5001498;28;88088;-38
2023/02/15 01:20:11;;;;;;;;;;;1.10;80.30;;;;;;5001817;28;90211;-38
2023/02/15 01:22:37;;;;;;;;;;;1.10;80.30;;;;;;5001781;28;88847;-38
2023/02/15 01:25:02;;;;;;;;;;;1.10;80.30;;;;;;5002232;28;87079;-37
2023/02/15 01:27:30;;;;;;;;;;;1.10;80.20;;;;;;5001867;28;88966;-38
2023/02/15 01:29:55;;;;;;;;;;;1.10;80.20;;;;;;5001841;28;88063;-38
2023/02/15 01:32:21;;;;;;;;;;;1.10;80.20;;;;;;5004962;28;86908;-38
2023/02/15 01:34:46;;;;;;;;;;;1.10;80.20;;;;;;5002322;28;87499;-38
2023/02/15 01:37:12;;;;;;;;;;;1.10;80.20;;;;;;5001841;28;87222;-38
2023/02/15 01:39:37;;;;;;;;;;;1.10;80.20;;;;;;5001958;28;87631;-38
2023/02/15 01:42:03;;;;;;;;;;;1.10;80.10;;;;;;5000776;28;90542;-38
2023/02/15 01:44:48;;;;;;;;;;;1.10;80.00;;;;;;5001901;28;87135;-38
2023/02/15 01:47:16;;;;;;;;;;;1.10;80.10;;;;;;5001549;28;87209;-38
2023/02/15 01:49:43;;;;;;;;;;;1.10;80.00;;;;;;5001334;28;89287;-38
2023/02/15 01:52:09;;;;;;;;;;;1.10;80.00;;;;;;5004697;28;87174;-38
2023/02/15 01:54:35;;;;;;;;;;;1.10;80.00;;;;;;5001373;28;88820;-38
2023/02/15 01:57:10;;;;;;;;;;;1.10;80.00;;;;;;5001581;28;87033;-38
2023/02/15 01:59:37;;;;;;;;;;;1.10;80.00;;;;;;5002296;28;89609;-38
2023/02/15 02:02:04;;;;;;;;;;;1.10;80.00;;;;;;5003795;28;88672;-38
2023/02/15 02:04:47;;;;;;;;;;;1.10;80.00;;;;;;5005035;28;87166;-38
2023/02/15 02:07:14;;;;;;;;;;;1.10;79.90;;;;;;5004050;28;88541;-38
2023/02/15 02:09:40;;;;;;;;;;;1.10;79.90;;;;;;5004868;28;88137;-38
2023/02/15 02:12:06;;;;;;;;;;;1.10;79.80;;;;;;5005165;28;87275;-37
2023/02/15 02:14:31;;;;;;;;;;;1.10;79.80;;;;;;5007314;28;88104;-38
2023/02/15 02:17:09;;;;;;;;;;;1.10;79.90;;;;;;5004942;28;86994;-38
2023/02/15 02:19:47;;;;;;;;;;;1.10;79.90;;;;;;5005074;28;88761;-37
2023/02/15 02:22:28;;;;;;;;;;;1.10;79.90;;;;;;5004489;28;89303;-38
2023/02/15 02:24:53;;;;;;;;;;;1.10;79.80;;;;;;5005151;28;86464;-38
2023/02/15 02:27:39;;;;;;;;;;;1.10;79.80;;;;;;5004673;28;88470;-38
2023/02/15 02:30:16;;;;;;;;;;;1.10;79.80;;;;;;5004317;28;88320;-38
2023/02/15 02:32:42;;;;;;;;;;;1.10;79.80;;;;;;5004541;28;88076;-37
2023/02/15 02:35:22;;;;;;;;;;;1.10;79.80;;;;;;5004924;28;88282;-38
2023/02/15 02:37:59;;;;;;;;;;;1.10;79.90;;;;;;5007059;28;89901;-38
2023/02/15 02:40:28;;;;;;;;;;;1.10;79.80;;;;;;5004547;28;89032;-38
2023/02/15 02:43:00;;;;;;;;;;;1.10;79.90;;;;;;5004372;28;88138;-38
2023/02/15 02:45:31;;;;;;;;;;;1.10;79.80;;;;;;5004617;28;87149;-38
2023/02/15 02:48:03;;;;;;;;;;;1.10;79.80;;;;;;5004300;28;89222;-38
2023/02/15 02:50:29;;;;;;;;;;;1.10;79.80;;;;;;5004677;28;87261;-37
2023/02/15 02:52:56;;;;;;;;;;;1.10;79.80;;;;;;5004775;28;87140;-38
2023/02/15 02:55:24;;;;;;;;;;;1.10;79.80;;;;;;5004427;28;88728;-38
2023/02/15 02:58:00;;;;;;;;;;;1.10;79.80;;;;;;5003427;28;90183;-38
2023/02/15 03:00:27;;;;;;;;;;;1.10;79.90;;;;;;5007365;28;87001;-38
2023/02/15 03:02:58;;;;;;;;;;;1.10;79.80;;;;;;5003695;28;89357;-38
2023/02/15 03:05:26;;;;;;;;;;;1.10;79.80;;;;;;5003960;28;87020;-38
2023/02/15 03:07:53;;;;;;;;;;;1.10;79.80;;;;;;5004425;28;87083;-38
2023/02/15 03:10:20;;;;;;;;;;;1.10;79.80;;;;;;5003964;28;88387;-38
2023/02/15 03:12:46;;;;;;;;;;;1.10;79.80;;;;;;5003493;28;87138;-38
2023/02/15 03:15:12;;;;;;;;;;;1.10;79.80;;;;;;5004411;28;87732;-38
2023/02/15 03:17:39;;;;;;;;;;;1.10;80.30;;;;;;5003681;28;89547;-38
2023/02/15 03:20:10;;;;;;;;;;;1.10;79.80;;;;;;5003927;28;87023;-38
2023/02/15 03:22:40;;;;;;;;;;;1.10;79.80;;;;;;5005951;28;88156;-38
2023/02/15 03:25:08;;;;;;;;;;;1.10;79.80;;;;;;5003904;28;87083;-38
2023/02/15 03:27:37;;;;;;;;;;;1.10;79.80;;;;;;5003729;28;88914;-38
2023/02/15 03:30:05;;;;;;;;;;;1.10;79.80;;;;;;5003384;28;89745;-38
2023/02/15 03:32:32;;;;;;;;;;;1.10;79.70;;;;;;5003628;28;86993;-38
2023/02/15 03:34:57;;;;;;;;;;;1.10;79.70;;;;;;5003698;28;88882;-38
2023/02/15 03:37:23;;;;;;;;;;;1.10;79.80;;;;;;5003233;28;88558;-38
2023/02/15 03:41:09;;;;;;;;;;;1.20;79.80;;;;;;5004226;28;86434;-38
2023/02/15 03:42:46;;;;;;;;;;;1.10;79.70;;;;;;5003791;28;87289;-38
2023/02/15 03:45:15;;;;;;;;;;;1.10;79.70;;;;;;5006107;28;89258;-38
2023/02/15 03:47:46;;;;;;;;;;;1.20;79.80;;;;;;5002662;28;89007;-38
2023/02/15 03:53:06;;;;;;;;;;;1.10;79.70;;;;;;5003465;28;86978;-38
2023/02/15 03:55:33;;;;;;;;;;;1.10;79.70;;;;;;5003499;28;87551;-38
2023/02/15 04:03:35;;;;;;;;;;;1.10;79.70;;;;;;5000807;28;87463;-38
2023/02/15 04:06:02;;;;;;;;;;;1.10;79.70;;;;;;5005901;28;87417;-38
2023/02/15 04:10:51;;;;;;;;;;;1.10;79.70;;;;;;5003226;28;88080;-38
2023/02/15 04:11:12;;;;;;;;;;;1.10;79.70;;;;;;5002755;28;88011;-38
2023/02/15 04:13:38;;;;;;;;;;;1.10;79.70;;;;;;5002521;28;88121;-37
2023/02/15 04:16:04;;;;;;;;;;;1.10;79.70;;;;;;5003109;28;87275;-38
2023/02/15 04:26:47;;;;;;;;;;;1.10;79.60;;;;;;5000361;28;87375;-38
2023/02/15 04:29:13;;;;;;;;;;;1.10;79.60;;;;;;5005698;28;87190;-38
2023/02/15 04:31:38;;;;;;;;;;;1.10;79.60;;;;;;5002926;28;88680;-38
2023/02/15 04:34:04;;;;;;;;;;;1.10;79.70;;;;;;5002939;28;87152;-38
2023/02/15 04:36:29;;;;;;;;;;;1.10;79.70;;;;;;5002747;28;88515;-38
2023/02/15 04:38:55;;;;;;;;;;;1.10;79.70;;;;;;5001677;28;88971;-37
2023/02/15 04:41:20;;;;;;;;;;;1.10;79.60;;;;;;5002584;28;87129;-37
2023/02/15 04:43:46;;;;;;;;;;;1.10;79.60;;;;;;5002828;28;88821;-38
2023/02/15 04:46:11;;;;;;;;;;;1.10;79.60;;;;;;5002412;28;88912;-38
2023/02/15 04:48:37;;;;;;;;;;;1.10;79.60;;;;;;5002230;28;87089;-38
2023/02/15 04:51:06;;;;;;;;;;;1.10;79.60;;;;;;5004960;28;88860;-38
2023/02/15 04:53:32;;;;;;;;;;;1.10;79.50;;;;;;5002609;28;87607;-38
2023/02/15 04:55:57;;;;;;;;;;;1.20;79.60;;;;;;5002790;28;87905;-38
2023/02/15 04:58:23;;;;;;;;;;;1.10;80.20;;;;;;5002378;28;88130;-38
2023/02/15 05:00:48;;;;;;;;;;;1.10;79.60;;;;;;5002792;28;87071;-38
2023/02/15 05:03:14;;;;;;;;;;;1.10;79.60;;;;;;5001732;28;88784;-38
2023/02/15 05:05:40;;;;;;;;;;;1.10;79.60;;;;;;5001582;28;89225;-38
2023/02/15 05:08:05;;;;;;;;;;;1.10;79.60;;;;;;5001982;28;87079;-38
2023/02/15 05:10:31;;;;;;;;;;;1.10;79.60;;;;;;5002248;28;88724;-38
2023/02/15 05:12:56;;;;;;;;;;;1.10;79.60;;;;;;5004773;28;88421;-38
2023/02/15 05:15:22;;;;;;;;;;;1.10;79.60;;;;;;5002387;28;88896;-38
2023/02/15 05:17:47;;;;;;;;;;;1.10;79.60;;;;;;5001923;28;89936;-38
2023/02/15 05:20:13;;;;;;;;;;;1.10;79.60;;;;;;5002959;28;86398;-38
2023/02/15 05:22:40;;;;;;;;;;;1.10;79.60;;;;;;5001785;28;88178;-38
2023/02/15 05:30:34;;;;;;;;;;;1.10;79.60;;;;;;5001368;28;87692;-38
2023/02/15 05:32:59;;;;;;;;;;;1.10;79.60;;;;;;5001574;28;89245;-38
2023/02/15 05:35:25;;;;;;;;;;;1.10;79.50;;;;;;5005283;28;87125;-38
2023/02/15 05:37:50;;;;;;;;;;;1.10;79.50;;;;;;5005267;28;89624;-38
2023/02/15 05:40:16;;;;;;;;;;;1.10;79.50;;;;;;5005537;28;87486;-38
2023/02/15 05:42:41;;;;;;;;;;;1.10;79.50;;;;;;5005484;28;88691;-38
2023/02/15 05:45:07;;;;;;;;;;;1.20;79.60;;;;;;5005766;28;87244;-38
2023/02/15 05:47:32;;;;;;;;;;;1.10;79.50;;;;;;5005075;28;87136;-38
2023/02/15 05:49:58;;;;;;;;;;;1.10;79.50;;;;;;5005143;28;88813;-38
2023/02/15 05:52:23;;;;;;;;;;;1.10;79.50;;;;;;5004311;28;90096;-38
2023/02/15 05:54:49;;;;;;;;;;;1.10;79.60;;;;;;5005110;28;87119;-38
2023/02/15 05:57:14;;;;;;;;;;;1.10;79.60;;;;;;5007716;28;88574;-38
2023/02/15 05:59:40;;;;;;;;;;;1.20;79.70;;;;;;5005203;28;87099;-38
2023/02/15 06:02:06;;;;;;;;;;;1.10;79.70;;;;;;5005163;28;88628;-38
2023/02/15 06:04:31;;;;;;;;;;;1.10;79.60;;;;;;5004369;28;89472;-38
2023/02/15 06:06:57;;;;;;;;;;;1.10;79.60;;;;;;5004703;28;87177;-38
2023/02/15 06:09:24;;;;;;;;;;;1.10;79.60;;;;;;5006034;28;86335;-38
2023/02/15 06:11:49;;;;;;;;;;;1.10;79.60;;;;;;5004554;28;89259;-38
2023/02/15 06:14:15;;;;;;;;;;;1.10;79.60;;;;;;5005130;28;87179;-37
2023/02/15 06:16:40;;;;;;;;;;;1.10;79.60;;;;;;5022180;28;89784;-38
2023/02/15 06:19:05;;;;;;;;;;;1.10;79.60;;;;;;5004954;28;87195;-38
2023/02/15 06:21:32;;;;;;;;;;;1.10;79.60;;;;;;5004688;28;88724;-38
2023/02/15 06:23:57;;;;;;;;;;;1.10;79.50;;;;;;5004408;28;88983;-38
2023/02/15 06:26:23;;;;;;;;;;;1.20;79.60;;;;;;5004587;28;87137;-38
2023/02/15 06:28:48;;;;;;;;;;;1.20;79.60;;;;;;5004903;28;88755;-38
2023/02/15 06:31:14;;;;;;;;;;;1.20;79.60;;;;;;5004263;28;89275;-38
2023/02/15 06:33:39;;;;;;;;;;;1.10;79.50;;;;;;5005145;28;86434;-38
2023/02/15 06:36:05;;;;;;;;;;;1.20;79.60;;;;;;5004512;28;88156;-38
2023/02/15 06:38:31;;;;;;;;;;;1.20;79.60;;;;;;5007161;28;89138;-38
2023/02/15 06:40:56;;;;;;;;;;;1.20;79.60;;;;;;5003988;28;88635;-38
2023/02/15 06:43:22;;;;;;;;;;;1.20;79.60;;;;;;5004142;28;89199;-38
2023/02/15 06:45:47;;;;;;;;;;;1.20;79.70;;;;;;5004550;28;87042;-38
2023/02/15 06:48:13;;;;;;;;;;;1.20;79.70;;;;;;5003086;28;88754;-38
2023/02/15 06:50:39;;;;;;;;;;;1.20;79.70;;;;;;5003847;28;88741;-38
2023/02/15 06:53:04;;;;;;;;;;;1.20;79.70;;;;;;5004430;28;87169;-38
2023/02/15 06:55:29;;;;;;;;;;;1.20;79.70;;;;;;5004678;28;86915;-38
2023/02/15 06:57:55;;;;;;;;;;;1.20;79.70;;;;;;5004380;28;88986;-38
2023/02/15 07:00:22;;;;;;;;;;;1.20;79.70;;;;;;5007214;28;87076;-38
2023/02/15 07:02:54;;;;;;;;;;;1.20;79.70;;;;;;5003792;28;89444;-38
2023/02/15 07:05:20;;;;;;;;;;;1.20;79.70;;;;;;5003292;28;89113;-38
2023/02/15 07:07:46;;;;;;;;;;;1.20;79.70;;;;;;5003975;28;90068;-38
2023/02/15 07:10:11;;;;;;;;;;;1.20;79.70;;;;;;5003901;28;89855;-37
2023/02/15 07:12:44;;;;;;;;;;;1.20;79.70;;;;;;5004101;28;86922;-38
2023/02/15 07:15:14;;;;;;;;;;;1.20;79.70;;;;;;5004074;28;88641;-38
2023/02/15 07:17:40;;;;;;;;;;;1.20;79.80;;;;;;5003459;28;89456;-38
2023/02/15 07:20:07;;;;;;;;;;;1.20;79.80;;;;;;5004051;28;87127;-38
2023/02/15 07:22:33;;;;;;;;;;;1.20;79.70;;;;;;5006880;28;88764;-38
2023/02/15 07:24:59;;;;;;;;;;;1.20;79.80;;;;;;5003971;28;87173;-38
2023/02/15 07:27:24;;;;;;;;;;;1.20;79.80;;;;;;5003755;28;88655;-38
2023/02/15 07:29:50;;;;;;;;;;;1.20;80.00;;;;;;5002751;28;90587;-38
2023/02/15 07:32:15;;;;;;;;;;;1.20;79.80;;;;;;5003550;28;87091;-38
2023/02/15 07:34:41;;;;;;;;;;;1.20;79.80;;;;;;5003894;28;89149;-38
2023/02/15 07:37:06;;;;;;;;;;;1.20;79.80;;;;;;5003299;28;89620;-38
2023/02/15 07:39:32;;;;;;;;;;;1.20;79.70;;;;;;5003672;28;87220;-38
2023/02/15 07:41:59;;;;;;;;;;;1.20;79.80;;;;;;5004168;28;87433;-38
2023/02/15 07:44:25;;;;;;;;;;;1.20;79.80;;;;;;5006354;28;89303;-38
2023/02/15 07:46:50;;;;;;;;;;;1.30;79.80;;;;;;5003974;28;88635;-38
2023/02/15 07:49:15;;;;;;;;;;;1.20;79.70;;;;;;5003025;28;88119;-38
2023/02/15 07:51:41;;;;;;;;;;;1.20;79.70;;;;;;5003564;28;87127;-38
2023/02/15 07:54:06;;;;;;;;;;;1.20;79.80;;;;;;5002717;28;88063;-38
2023/02/15 07:56:32;;;;;;;;;;;1.20;79.80;;;;;;5003107;28;89860;-38
2023/02/15 07:59:00;;;;;;;;;;;1.20;79.80;;;;;;5003207;28;87214;-38
2023/02/15 08:01:36;;;;;;;;;;;1.20;79.90;;;;;;5003286;28;88943;-37
2023/02/15 08:04:02;;;;;;;;;;;1.30;79.90;;;;;;5003097;28;89506;-38
2023/02/15 08:06:30;;;;;;;;;;;1.20;79.80;;;;;;5005507;28;87175;-38
2023/02/15 08:08:56;;;;;;;;;;;1.30;79.80;;;;;;5002873;28;89257;-38
2023/02/15 08:11:29;;;;;;;;;;;1.30;79.90;;;;;;5003606;28;86366;-37
2023/02/15 08:14:04;;;;;;;;;;;1.20;79.80;;;;;;5003246;28;87997;-37
2023/02/15 08:16:34;;;;;;;;;;;1.30;79.80;;;;;;5002776;28;89195;-38
2023/02/15 08:19:02;;;;;;;;;;;1.30;79.90;;;;;;5002490;28;88160;-38
2023/02/15 08:21:28;;;;;;;;;;;1.30;79.90;;;;;;5003043;28;89679;-38
2023/02/15 08:23:54;;;;;;;;;;;1.30;80.00;;;;;;5002444;28;88104;-38
2023/02/15 08:26:20;;;;;;;;;;;1.30;79.90;;;;;;5005613;28;88113;-38
2023/02/15 08:28:46;;;;;;;;;;;1.30;79.90;;;;;;5002600;28;89319;-38
2023/02/15 08:31:13;;;;;;;;;;;1.30;79.80;;;;;;5002912;28;87084;-38
2023/02/15 08:33:39;;;;;;;;;;;1.30;79.80;;;;;;5003227;28;87250;-38
2023/02/15 08:36:06;;;;;;;;;;;1.30;80.40;;;;;;5002834;28;88840;-38
2023/02/15 08:38:32;;;;;;;;;;;1.30;79.80;;;;;;5002663;28;87136;-38
2023/02/15 08:40:58;;;;;;;;;;;1.30;79.80;;;;;;5002684;28;88604;-38
2023/02/15 08:43:23;;;;;;;;;;;1.30;79.80;;;;;;5001783;28;88867;-37
2023/02/15 08:45:49;;;;;;;;;;;1.30;79.90;;;;;;5002892;28;87217;-38
2023/02/15 08:48:14;;;;;;;;;;;1.30;79.80;;;;;;5004893;28;87720;-38
2023/02/15 08:50:40;;;;;;;;;;;1.30;79.80;;;;;;5002557;28;87096;-38
2023/02/15 08:53:05;;;;;;;;;;;1.30;79.90;;;;;;5002520;28;88203;-37
2023/02/15 08:55:31;;;;;;;;;;;1.30;79.90;;;;;;5002277;28;89284;-38
2023/02/15 08:57:57;;;;;;;;;;;1.40;79.90;;;;;;5002471;28;87119;-38
2023/02/15 09:00:22;;;;;;;;;;;1.30;79.70;;;;;;5003199;28;88770;-38
2023/02/15 09:02:48;;;;;;;;;;;1.40;79.90;;;;;;5002118;28;89955;-38
2023/02/15 09:05:14;;;;;;;;;;;1.40;79.90;;;;;;5002157;28;87081;-38
2023/02/15 09:07:39;;;;;;;;;;;1.40;79.90;;;;;;5001658;28;88865;-38
2023/02/15 09:10:05;;;;;;;;;;;1.40;79.90;;;;;;5004415;28;89757;-38
2023/02/15 09:12:31;;;;;;;;;;;1.30;79.80;;;;;;5002134;28;87307;-38
2023/02/15 09:14:56;;;;;;;;;;;1.40;79.90;;;;;;5001849;28;89285;-38
2023/02/15 09:17:22;;;;;;;;;;;1.40;79.80;;;;;;5002460;28;87245;-38
2023/02/15 09:19:47;;;;;;;;;;;1.40;79.80;;;;;;5002485;28;87436;-38
2023/02/15 09:22:13;;;;;;;;;;;1.40;79.80;;;;;;5001775;28;89593;-38
2023/02/15 09:24:38;;;;;;;;;;;1.40;79.80;;;;;;5002698;28;86261;-38
2023/02/15 09:27:04;;;;;;;;;;;1.40;79.90;;;;;;5002215;28;89610;-38
2023/02/15 09:29:29;;;;;;;;;;;1.40;79.80;;;;;;5001515;28;89342;-38
2023/02/15 09:31:55;;;;;;;;;;;1.40;79.70;;;;;;5004509;28;88068;-38
2023/02/15 09:34:21;;;;;;;;;;;1.40;79.70;;;;;;5001906;28;89144;-38
2023/02/15 09:36:47;;;;;;;;;;;1.50;79.70;;;;;;5001939;28;87158;-38
2023/02/15 09:39:14;;;;;;;;;;;1.40;79.60;;;;;;5002070;28;87906;-38
2023/02/15 09:41:42;;;;;;;;;;;1.40;79.70;;;;;;5001725;28;88994;-38
2023/02/15 09:44:15;;;;;;;;;;;1.50;79.80;;;;;;5001861;28;87203;-38
2023/02/15 09:46:50;;;;;;;;;;;1.40;79.80;;;;;;5001773;28;87399;-38
2023/02/15 09:49:34;;;;;;;;;;;1.40;79.80;;;;;;5002169;28;87363;-38
2023/02/15 09:52:09;;;;;;;;;;;1.40;79.90;;;;;;5001875;28;87261;-38
2023/02/15 09:54:42;;;;;;;;;;;1.40;79.90;;;;;;5004532;28;87402;-38
2023/02/15 09:57:16;;;;;;;;;;;1.40;80.00;;;;;;5001206;28;87935;-38
2023/02/15 10:00:01;;;;;;;;;;;1.40;79.80;;;;;;5001933;28;89753;-38
2023/02/15 10:02:44;;;;;;;;;;;1.40;79.90;;;;;;5001255;28;89161;-38
2023/02/15 10:05:30;;;;;;;;;;;1.40;79.90;;;;;;5001649;28;86906;-38
2023/02/15 10:08:13;;;;;;;;;;;1.50;80.00;;;;;;5001671;28;88683;-38
2023/02/15 10:11:38;;;;;;;;;;;1.40;79.90;;;;;;5001767;28;87198;-38
2023/02/15 10:13:52;;;;;;;;;;;1.40;79.90;;;;;;5001425;28;87174;-38
2023/02/15 10:16:38;;;;;;;;;;;1.40;80.10;;;;;;5004653;28;89373;-38
2023/02/15 10:19:22;;;;;;;;;;;1.40;80.00;;;;;;4993889;28;88270;-38
2023/02/15 10:22:02;;;;;;;;;;;1.40;80.00;;;;;;5001525;28;88644;-38
2023/02/15 10:24:28;;;;;;;;;;;1.50;80.20;;;;;;5003723;28;90400;-38
2023/02/15 10:26:58;;;;;;;;;;;1.50;80.20;;;;;;5004940;28;87076;-38
2023/02/15 10:29:36;;;;;;;;;;;1.50;80.00;;;;;;5004830;28;88818;-38
2023/02/15 10:32:04;;;;;;;;;;;1.50;80.30;;;;;;5004186;28;89404;-38
2023/02/15 10:34:30;;;;;;;;;;;1.50;80.10;;;;;;5004787;28;87115;-37
2023/02/15 10:36:55;;;;;;;;;;;1.50;80.20;;;;;;5004904;28;87357;-38
2023/02/15 10:39:46;;;;;;;;;;;1.50;80.30;;;;;;5007041;28;88863;-38
2023/02/15 10:42:15;;;;;;;;;;;1.50;80.30;;;;;;5005355;28;87498;-38
2023/02/15 10:44:58;;;;;;;;;;;1.50;80.10;;;;;;5004200;28;89272;-38
2023/02/15 10:47:37;;;;;;;;;;;1.50;80.00;;;;;;5004385;28;86963;-38
2023/02/15 10:50:03;;;;;;;;;;;1.50;80.40;;;;;;5003728;28;87931;-38
2023/02/15 10:52:48;;;;;;;;;;;1.50;80.30;;;;;;5003999;28;89272;-38
2023/02/15 10:55:26;;;;;;;;;;;1.50;80.40;;;;;;5004478;28;87182;-38
2023/02/15 10:57:55;;;;;;;;;;;1.50;80.50;;;;;;5004354;28;88929;-38
2023/02/15 11:00:28;;;;;;;;;;;1.50;80.20;;;;;;5003956;28;89315;-38
2023/02/15 11:03:12;;;;;;;;;;;1.60;80.10;;;;;;5007167;28;87062;-38
2023/02/15 11:05:44;;;;;;;;;;;1.60;80.20;;;;;;5003210;28;89281;-38
2023/02/15 11:08:10;;;;;;;;;;;1.60;80.00;;;;;;5004552;28;86422;-38
2023/02/15 11:10:41;;;;;;;;;;;1.70;80.10;;;;;;5004200;28;88159;-38
2023/02/15 11:13:13;;;;;;;;;;;1.70;80.00;;;;;;5003897;28;88320;-38
2023/02/15 11:15:44;;;;;;;;;;;1.70;79.90;;;;;;5003376;28;88086;-38
2023/02/15 11:18:10;;;;;;;;;;;1.70;80.00;;;;;;5003926;28;89684;-38
2023/02/15 11:20:42;;;;;;;;;;;1.80;80.10;;;;;;5003361;28;89453;-38
2023/02/15 11:23:18;;;;;;;;;;;1.70;79.80;;;;;;5004128;28;87125;-38
2023/02/15 11:25:45;;;;;;;;;;;1.80;79.90;;;;;;5006697;28;88879;-38
2023/02/15 11:28:19;;;;;;;;;;;1.70;80.10;;;;;;5003996;28;87103;-38
2023/02/15 11:30:47;;;;;;;;;;;1.70;80.00;;;;;;5003751;28;88886;-38
2023/02/15 11:33:27;;;;;;;;;;;1.70;80.00;;;;;;5003548;28;88859;-38
2023/02/15 11:35:56;;;;;;;;;;;1.70;80.20;;;;;;5003640;28;87103;-38
2023/02/15 11:38:24;;;;;;;;;;;1.80;80.20;;;;;;5003683;28;88743;-38
2023/02/15 11:40:51;;;;;;;;;;;1.80;80.10;;;;;;5002764;28;90535;-39
2023/02/15 11:43:30;;;;;;;;;;;1.80;80.00;;;;;;5003625;28;87189;-38
2023/02/15 11:45:56;;;;;;;;;;;1.80;80.30;;;;;;5003741;28;86938;-38
2023/02/15 11:48:22;;;;;;;;;;;1.80;80.20;;;;;;5005794;28;89006;-38
2023/02/15 11:50:47;;;;;;;;;;;1.80;80.30;;;;;;5003458;28;88760;-38
2023/02/15 11:53:15;;;;;;;;;;;1.80;80.40;;;;;;5003176;28;88464;-38
2023/02/15 11:55:43;;;;;;;;;;;1.80;80.30;;;;;;5003359;28;87093;-38
2023/02/15 11:58:28;;;;;;;;;;;1.80;80.30;;;;;;5004042;28;88914;-38
2023/02/15 12:01:02;;;;;;;;;;;1.80;80.20;;;;;;5003040;28;89170;-38
2023/02/15 12:03:39;;;;;;;;;;;1.80;80.20;;;;;;5003148;28;86908;-38
2023/02/15 12:06:13;;;;;;;;;;;1.80;80.20;;;;;;5002172;28;88748;-38
2023/02/15 12:08:40;;;;;;;;;;;1.80;80.30;;;;;;5002836;28;89724;-38
2023/02/15 12:11:12;;;;;;;;;;;1.80;80.20;;;;;;5006144;28;87177;-38
2023/02/15 12:13:56;;;;;;;;;;;1.80;80.30;;;;;;5002825;28;89312;-38
2023/02/15 12:16:21;;;;;;;;;;;1.80;80.40;;;;;;5003358;28;87125;-38
2023/02/15 12:18:47;;;;;;;;;;;1.90;80.40;;;;;;5003222;28;87736;-38
2023/02/15 12:21:25;;;;;;;;;;;1.90;80.40;;;;;;5002667;28;89479;-38
2023/02/15 12:23:52;;;;;;;;;;;1.90;80.40;;;;;;5003602;28;86255;-38
2023/02/15 12:26:28;;;;;;;;;;;1.90;80.60;;;;;;5003074;28;87867;-38
2023/02/15 12:28:54;;;;;;;;;;;1.90;80.50;;;;;;5002439;28;88722;-38
2023/02/15 12:31:20;;;;;;;;;;;1.90;80.40;;;;;;5004778;28;88077;-38
2023/02/15 12:33:46;;;;;;;;;;;1.90;80.30;;;;;;5002530;28;89607;-38
2023/02/15 12:36:22;;;;;;;;;;;1.90;80.40;;;;;;5002912;28;87592;-38
2023/02/15 12:39:06;;;;;;;;;;;1.90;80.40;;;;;;5003058;28;88772;-38
2023/02/15 12:41:32;;;;;;;;;;;1.90;80.50;;;;;;5002476;28;88659;-38
2023/02/15 12:44:18;;;;;;;;;;;1.90;80.50;;;;;;5002340;28;87185;-38
2023/02/15 12:46:56;;;;;;;;;;;1.90;80.50;;;;;;5001474;28;88608;-38
2023/02/15 12:49:21;;;;;;;;;;;2.00;80.60;;;;;;5002669;28;88638;-38
2023/02/15 12:51:53;;;;;;;;;;;2.00;80.60;;;;;;5002598;28;87063;-38
2023/02/15 12:54:24;;;;;;;;;;;1.90;80.60;;;;;;5004966;28;89117;-38
2023/02/15 12:56:49;;;;;;;;;;;2.00;80.70;;;;;;5001855;28;88017;-38
2023/02/15 12:59:15;;;;;;;;;;;2.00;80.70;;;;;;5002738;28;88397;-39
2023/02/15 13:01:42;;;;;;;;;;;2.00;80.80;;;;;;5002131;28;89486;-38
2023/02/15 13:04:24;;;;;;;;;;;2.00;80.80;;;;;;5002464;28;87424;-38
2023/02/15 13:06:51;;;;;;;;;;;2.00;80.80;;;;;;5001769;28;88938;-38
2023/02/15 13:09:23;;;;;;;;;;;2.00;80.70;;;;;;5001969;28;89707;-38
2023/02/15 13:11:48;;;;;;;;;;;2.00;80.80;;;;;;5002434;28;87096;-38
2023/02/15 13:14:22;;;;;;;;;;;2.00;80.80;;;;;;5003078;28;87557;-38
2023/02/15 13:16:49;;;;;;;;;;;2.00;80.90;;;;;;5004827;28;89333;-38
2023/02/15 13:19:16;;;;;;;;;;;2.00;80.80;;;;;;5002102;28;88624;-38
2023/02/15 13:21:47;;;;;;;;;;;2.00;80.80;;;;;;5001152;28;90476;-38
2023/02/15 13:24:15;;;;;;;;;;;2.00;80.80;;;;;;5002365;28;87099;-38
2023/02/15 13:26:44;;;;;;;;;;;2.00;80.70;;;;;;5001938;28;89245;-38
2023/02/15 13:29:24;;;;;;;;;;;2.00;81.20;;;;;;5001821;28;89207;-38
2023/02/15 13:31:50;;;;;;;;;;;2.00;81.10;;;;;;5002510;28;87113;-38
2023/02/15 13:34:30;;;;;;;;;;;2.00;81.30;;;;;;5002059;28;87776;-38
2023/02/15 13:37:08;;;;;;;;;;;2.00;81.30;;;;;;5001977;28;88175;-38
2023/02/15 13:39:57;;;;;;;;;;;2.00;81.40;;;;;;5005214;28;86834;-38
2023/02/15 13:42:30;;;;;;;;;;;2.00;81.30;;;;;;5001732;28;89617;-38
2023/02/15 13:44:56;;;;;;;;;;;2.00;81.20;;;;;;5001738;28;87636;-38
2023/02/15 13:47:25;;;;;;;;;;;2.00;81.30;;;;;;5001201;28;89074;-38
2023/02/15 13:50:00;;;;;;;;;;;2.00;81.40;;;;;;5001162;28;89379;-38
2023/02/15 13:52:28;;;;;;;;;;;2.10;81.50;;;;;;5001757;28;87116;-38
2023/02/15 13:54:53;;;;;;;;;;;2.10;81.50;;;;;;5001725;28;88649;-38
2023/02/15 13:57:34;;;;;;;;;;;2.10;81.50;;;;;;5003261;28;88189;-38
2023/02/15 14:00:18;;;;;;;;;;;2.20;81.30;;;;;;5005337;28;87402;-38
2023/02/15 14:02:43;;;;;;;;;;;2.20;81.30;;;;;;5007814;28;88481;-38
2023/02/15 14:05:15;;;;;;;;;;;2.20;81.40;;;;;;5005398;28;86360;-38
2023/02/15 14:07:53;;;;;;;;;;;2.10;81.40;;;;;;5004929;28;88156;-38
2023/02/15 14:10:26;;;;;;;;;;;2.20;81.40;;;;;;5004903;28;88328;-38
2023/02/15 14:12:51;;;;;;;;;;;2.20;81.40;;;;;;5004563;28;88078;-38
2023/02/15 14:15:20;;;;;;;;;;;2.20;81.40;;;;;;5005179;28;88256;-38
2023/02/15 14:17:49;;;;;;;;;;;2.10;81.60;;;;;;5004563;28;89298;-38
2023/02/15 14:20:19;;;;;;;;;;;2.10;82.00;;;;;;5005053;28;87126;-38
2023/02/15 14:22:49;;;;;;;;;;;2.00;82.90;;;;;;5005018;28;88469;-38
2023/02/15 14:25:27;;;;;;;;;;;2.10;82.40;;;;;;5007406;28;89149;-38
2023/02/15 14:27:56;;;;;;;;;;;2.10;82.20;;;;;;5004570;28;88787;-38
2023/02/15 14:30:24;;;;;;;;;;;2.20;81.90;;;;;;5004780;28;88543;-38
2023/02/15 14:32:54;;;;;;;;;;;2.20;82.10;;;;;;5004748;28;86987;-38
2023/02/15 14:35:24;;;;;;;;;;;2.10;82.10;;;;;;5004749;28;87709;-38
2023/02/15 14:38:05;;;;;;;;;;;2.10;82.10;;;;;;5003561;28;90392;-38
2023/02/15 14:43:26;;;;;;;;;;;2.30;82.10;;;;;;5004936;28;86863;-38
2023/02/15 14:45:58;;;;;;;;;;;2.20;82.00;;;;;;5007345;28;87200;-38
2023/02/15 14:48:42;;;;;;;;;;;2.20;82.20;;;;;;5004242;28;88930;-38
2023/02/15 14:51:08;;;;;;;;;;;2.10;82.70;;;;;;5004202;28;89755;-38
2023/02/15 14:53:38;;;;;;;;;;;2.20;82.60;;;;;;5004197;28;87283;-38
2023/02/15 14:56:09;;;;;;;;;;;2.10;82.50;;;;;;5004898;28;88929;-38
2023/02/15 14:58:35;;;;;;;;;;;2.20;82.70;;;;;;5004076;28;89488;-38
2023/02/15 15:01:06;;;;;;;;;;;2.10;82.60;;;;;;5004407;28;87025;-38
2023/02/15 15:03:31;;;;;;;;;;;2.20;82.40;;;;;;5003538;28;88696;-38
2023/02/15 15:05:59;;;;;;;;;;;2.20;82.50;;;;;;5003141;28;89344;-38
2023/02/15 15:08:40;;;;;;;;;;;2.20;82.80;;;;;;5006005;28;86963;-38